sensor_id;sensor_type;location;lat;lon;timestamp;P1;durP1;ratioP1;P2;durP2;ratioP2
57055;SDS011;42945;51.718;5.324;2023-09-07T00:01:21;23.63;;;16.27;;
57055;SDS011;42945;51.718;5.324;2023-09-07T00:11:09;24.73;;;17.35;;
57055;SDS011;42945;51.718;5.324;2023-09-07T00:16:58;29.23;;;18.43;;
57055;SDS011;42945;51.718;5.324;2023-09-07T00:22:46;28.98;;;18.95;;
57055;SDS011;42945;51.718;5.324;2023-09-07T00:28:34;26.85;;;19.60;;
57055;SDS011;42945;51.718;5.324;2023-09-07T00:34:22;29.27;;;20.08;;
57055;SDS011;42945;51.718;5.324;2023-09-07T00:40:10;29.38;;;20.95;;
57055;SDS011;42945;51.718;5.324;2023-09-07T00:45:58;31.73;;;21.50;;
57055;SDS011;42945;51.718;5.324;2023-09-07T00:51:46;34.13;;;22.05;;
57055;SDS011;42945;51.718;5.324;2023-09-07T00:57:33;30.33;;;21.70;;
57055;SDS011;42945;51.718;5.324;2023-09-07T01:03:23;32.70;;;20.43;;
57055;SDS011;42945;51.718;5.324;2023-09-07T01:13:06;29.85;;;20.48;;
57055;SDS011;42945;51.718;5.324;2023-09-07T01:18:53;28.92;;;19.85;;
57055;SDS011;42945;51.718;5.324;2023-09-07T01:24:41;30.38;;;20.80;;
57055;SDS011;42945;51.718;5.324;2023-09-07T01:30:30;33.05;;;21.15;;
57055;SDS011;42945;51.718;5.324;2023-09-07T01:36:19;34.15;;;22.88;;
57055;SDS011;42945;51.718;5.324;2023-09-07T01:42:07;38.95;;;23.50;;
57055;SDS011;42945;51.718;5.324;2023-09-07T01:47:55;37.20;;;24.05;;
57055;SDS011;42945;51.718;5.324;2023-09-07T01:53:43;32.77;;;22.80;;
57055;SDS011;42945;51.718;5.324;2023-09-07T01:59:35;32.17;;;21.73;;
57055;SDS011;42945;51.718;5.324;2023-09-07T02:05:22;29.38;;;20.90;;
57055;SDS011;42945;51.718;5.324;2023-09-07T02:15:05;34.45;;;20.52;;
57055;SDS011;42945;51.718;5.324;2023-09-07T02:21:00;29.58;;;19.88;;
57055;SDS011;42945;51.718;5.324;2023-09-07T02:26:51;28.42;;;21.45;;
57055;SDS011;42945;51.718;5.324;2023-09-07T02:32:44;33.70;;;21.93;;
57055;SDS011;42945;51.718;5.324;2023-09-07T02:38:31;32.80;;;21.00;;
57055;SDS011;42945;51.718;5.324;2023-09-07T02:44:19;28.48;;;19.73;;
57055;SDS011;42945;51.718;5.324;2023-09-07T02:50:08;33.30;;;20.60;;
57055;SDS011;42945;51.718;5.324;2023-09-07T02:55:56;34.92;;;21.52;;
57055;SDS011;42945;51.718;5.324;2023-09-07T03:01:44;28.30;;;20.08;;
57055;SDS011;42945;51.718;5.324;2023-09-07T03:07:33;29.92;;;19.95;;
57055;SDS011;42945;51.718;5.324;2023-09-07T03:17:16;28.80;;;19.73;;
57055;SDS011;42945;51.718;5.324;2023-09-07T03:23:04;31.55;;;18.58;;
57055;SDS011;42945;51.718;5.324;2023-09-07T03:28:53;26.85;;;18.35;;
57055;SDS011;42945;51.718;5.324;2023-09-07T03:34:40;28.85;;;19.17;;
57055;SDS011;42945;51.718;5.324;2023-09-07T03:40:28;28.77;;;19.13;;
57055;SDS011;42945;51.718;5.324;2023-09-07T03:46:15;29.58;;;19.27;;
57055;SDS011;42945;51.718;5.324;2023-09-07T03:52:04;29.15;;;18.83;;
57055;SDS011;42945;51.718;5.324;2023-09-07T03:57:51;26.85;;;18.35;;
57055;SDS011;42945;51.718;5.324;2023-09-07T04:03:39;39.45;;;19.92;;
57055;SDS011;42945;51.718;5.324;2023-09-07T04:09:29;30.98;;;19.23;;
57055;SDS011;42945;51.718;5.324;2023-09-07T04:15:18;32.00;;;17.80;;
57055;SDS011;42945;51.718;5.324;2023-09-07T04:21:07;28.05;;;18.00;;
57055;SDS011;42945;51.718;5.324;2023-09-07T04:26:59;29.92;;;19.05;;
57055;SDS011;42945;51.718;5.324;2023-09-07T04:32:48;27.95;;;18.17;;
57055;SDS011;42945;51.718;5.324;2023-09-07T04:38:38;32.47;;;17.63;;
57055;SDS011;42945;51.718;5.324;2023-09-07T04:44:26;28.05;;;17.55;;
57055;SDS011;42945;51.718;5.324;2023-09-07T04:50:15;27.17;;;17.17;;
57055;SDS011;42945;51.718;5.324;2023-09-07T04:56:04;30.33;;;17.50;;
57055;SDS011;42945;51.718;5.324;2023-09-07T05:01:53;31.42;;;19.48;;
57055;SDS011;42945;51.718;5.324;2023-09-07T05:07:42;34.88;;;18.75;;
57055;SDS011;42945;51.718;5.324;2023-09-07T05:13:31;30.40;;;18.33;;
57055;SDS011;42945;51.718;5.324;2023-09-07T05:19:21;31.08;;;18.85;;
57055;SDS011;42945;51.718;5.324;2023-09-07T05:25:09;31.65;;;18.58;;
57055;SDS011;42945;51.718;5.324;2023-09-07T05:30:58;38.50;;;19.38;;
57055;SDS011;42945;51.718;5.324;2023-09-07T05:36:48;30.38;;;20.02;;
57055;SDS011;42945;51.718;5.324;2023-09-07T05:42:36;32.80;;;20.52;;
57055;SDS011;42945;51.718;5.324;2023-09-07T05:48:26;29.80;;;19.05;;
57055;SDS011;42945;51.718;5.324;2023-09-07T05:54:18;36.00;;;20.65;;
57055;SDS011;42945;51.718;5.324;2023-09-07T06:00:08;32.20;;;19.70;;
57055;SDS011;42945;51.718;5.324;2023-09-07T06:05:58;30.80;;;18.67;;
57055;SDS011;42945;51.718;5.324;2023-09-07T06:11:46;28.33;;;17.60;;
57055;SDS011;42945;51.718;5.324;2023-09-07T06:21:21;35.60;;;17.88;;
57055;SDS011;42945;51.718;5.324;2023-09-07T06:27:09;30.05;;;17.08;;
57055;SDS011;42945;51.718;5.324;2023-09-07T06:32:58;30.25;;;16.00;;
57055;SDS011;42945;51.718;5.324;2023-09-07T06:38:46;31.05;;;16.45;;
57055;SDS011;42945;51.718;5.324;2023-09-07T06:44:36;28.17;;;16.60;;
57055;SDS011;42945;51.718;5.324;2023-09-07T06:50:23;23.52;;;15.30;;
57055;SDS011;42945;51.718;5.324;2023-09-07T06:56:11;24.90;;;14.73;;
57055;SDS011;42945;51.718;5.324;2023-09-07T07:02:00;26.77;;;13.85;;
57055;SDS011;42945;51.718;5.324;2023-09-07T07:07:51;24.63;;;14.10;;
57055;SDS011;42945;51.718;5.324;2023-09-07T07:13:40;21.33;;;13.20;;
57055;SDS011;42945;51.718;5.324;2023-09-07T07:23:04;21.92;;;12.88;;
57055;SDS011;42945;51.718;5.324;2023-09-07T07:28:54;22.83;;;12.13;;
57055;SDS011;42945;51.718;5.324;2023-09-07T07:34:45;21.60;;;12.10;;
57055;SDS011;42945;51.718;5.324;2023-09-07T07:40:34;21.60;;;12.27;;
57055;SDS011;42945;51.718;5.324;2023-09-07T07:46:22;18.52;;;11.57;;
57055;SDS011;42945;51.718;5.324;2023-09-07T07:52:11;17.10;;;10.45;;
57055;SDS011;42945;51.718;5.324;2023-09-07T07:57:59;17.55;;;10.27;;
57055;SDS011;42945;51.718;5.324;2023-09-07T08:03:47;19.15;;;9.93;;
57055;SDS011;42945;51.718;5.324;2023-09-07T08:09:38;18.67;;;10.68;;
57055;SDS011;42945;51.718;5.324;2023-09-07T08:15:26;16.95;;;9.80;;
57055;SDS011;42945;51.718;5.324;2023-09-07T08:25:03;17.85;;;9.38;;
57055;SDS011;42945;51.718;5.324;2023-09-07T08:30:53;16.20;;;9.05;;
57055;SDS011;42945;51.718;5.324;2023-09-07T08:36:48;14.20;;;9.00;;
57055;SDS011;42945;51.718;5.324;2023-09-07T08:42:47;13.53;;;8.70;;
57055;SDS011;42945;51.718;5.324;2023-09-07T08:48:38;11.93;;;7.80;;
57055;SDS011;42945;51.718;5.324;2023-09-07T08:54:10;13.43;;;8.00;;
57055;SDS011;42945;51.718;5.324;2023-09-07T09:00:00;11.50;;;8.10;;
57055;SDS011;42945;51.718;5.324;2023-09-07T09:05:48;14.55;;;8.27;;
57055;SDS011;42945;51.718;5.324;2023-09-07T09:11:40;11.60;;;7.53;;
57055;SDS011;42945;51.718;5.324;2023-09-07T09:17:28;12.38;;;7.18;;
57055;SDS011;42945;51.718;5.324;2023-09-07T09:27:11;11.30;;;7.78;;
57055;SDS011;42945;51.718;5.324;2023-09-07T09:32:59;15.63;;;7.78;;
57055;SDS011;42945;51.718;5.324;2023-09-07T09:38:50;12.57;;;6.88;;
57055;SDS011;42945;51.718;5.324;2023-09-07T09:44:41;9.35;;;6.30;;
57055;SDS011;42945;51.718;5.324;2023-09-07T09:50:31;11.18;;;6.05;;
57055;SDS011;42945;51.718;5.324;2023-09-07T09:56:29;9.17;;;5.50;;
57055;SDS011;42945;51.718;5.324;2023-09-07T10:02:23;12.93;;;5.85;;
57055;SDS011;42945;51.718;5.324;2023-09-07T10:08:13;10.88;;;5.63;;
57055;SDS011;42945;51.718;5.324;2023-09-07T10:14:07;9.50;;;5.25;;
57055;SDS011;42945;51.718;5.324;2023-09-07T10:20:06;12.77;;;5.22;;
57055;SDS011;42945;51.718;5.324;2023-09-07T10:29:57;9.40;;;4.97;;
57055;SDS011;42945;51.718;5.324;2023-09-07T10:35:45;7.63;;;5.50;;
57055;SDS011;42945;51.718;5.324;2023-09-07T10:41:40;9.77;;;6.05;;
57055;SDS011;42945;51.718;5.324;2023-09-07T10:47:29;6.65;;;4.65;;
57055;SDS011;42945;51.718;5.324;2023-09-07T10:53:26;7.25;;;4.50;;
57055;SDS011;42945;51.718;5.324;2023-09-07T10:59:17;10.73;;;4.90;;
57055;SDS011;42945;51.718;5.324;2023-09-07T11:05:05;6.50;;;4.10;;
57055;SDS011;42945;51.718;5.324;2023-09-07T11:10:55;7.22;;;3.97;;
57055;SDS011;42945;51.718;5.324;2023-09-07T11:16:43;5.15;;;3.80;;
57055;SDS011;42945;51.718;5.324;2023-09-07T11:22:32;6.85;;;3.72;;
57055;SDS011;42945;51.718;5.324;2023-09-07T11:32:21;6.00;;;3.80;;
57055;SDS011;42945;51.718;5.324;2023-09-07T11:38:12;5.50;;;3.72;;
57055;SDS011;42945;51.718;5.324;2023-09-07T11:44:02;7.15;;;4.50;;
57055;SDS011;42945;51.718;5.324;2023-09-07T11:49:49;10.95;;;5.00;;
57055;SDS011;42945;51.718;5.324;2023-09-07T12:01:27;5.45;;;3.78;;
57055;SDS011;42945;51.718;5.324;2023-09-07T12:07:16;7.03;;;4.53;;
57055;SDS011;42945;51.718;5.324;2023-09-07T12:18:52;8.48;;;4.25;;
57055;SDS011;42945;51.718;5.324;2023-09-07T12:34:24;5.78;;;4.32;;
57055;SDS011;42945;51.718;5.324;2023-09-07T12:40:12;5.97;;;3.88;;
57055;SDS011;42945;51.718;5.324;2023-09-07T12:46:00;6.28;;;3.53;;
57055;SDS011;42945;51.718;5.324;2023-09-07T12:51:49;6.55;;;3.97;;
57055;SDS011;42945;51.718;5.324;2023-09-07T12:57:37;6.57;;;4.10;;
57055;SDS011;42945;51.718;5.324;2023-09-07T13:09:13;5.80;;;3.38;;
57055;SDS011;42945;51.718;5.324;2023-09-07T13:15:01;7.05;;;3.63;;
57055;SDS011;42945;51.718;5.324;2023-09-07T13:20:51;7.43;;;4.10;;
57055;SDS011;42945;51.718;5.324;2023-09-07T13:26:46;6.20;;;4.63;;
57055;SDS011;42945;51.718;5.324;2023-09-07T13:36:27;8.82;;;4.00;;
57055;SDS011;42945;51.718;5.324;2023-09-07T13:42:15;7.20;;;3.60;;
57055;SDS011;42945;51.718;5.324;2023-09-07T13:48:02;6.97;;;3.97;;
57055;SDS011;42945;51.718;5.324;2023-09-07T13:53:51;7.13;;;4.03;;
57055;SDS011;42945;51.718;5.324;2023-09-07T13:59:39;8.18;;;3.90;;
57055;SDS011;42945;51.718;5.324;2023-09-07T14:05:26;12.40;;;4.03;;
57055;SDS011;42945;51.718;5.324;2023-09-07T14:11:13;6.05;;;3.50;;
57055;SDS011;42945;51.718;5.324;2023-09-07T14:17:05;6.97;;;3.70;;
57055;SDS011;42945;51.718;5.324;2023-09-07T14:22:54;9.05;;;3.80;;
57055;SDS011;42945;51.718;5.324;2023-09-07T14:28:45;5.55;;;3.83;;
57055;SDS011;42945;51.718;5.324;2023-09-07T14:38:30;6.38;;;4.18;;
57055;SDS011;42945;51.718;5.324;2023-09-07T14:44:20;7.18;;;3.13;;
57055;SDS011;42945;51.718;5.324;2023-09-07T14:50:09;7.85;;;3.70;;
57055;SDS011;42945;51.718;5.324;2023-09-07T14:55:58;5.15;;;3.63;;
57055;SDS011;42945;51.718;5.324;2023-09-07T15:01:46;8.18;;;3.30;;
57055;SDS011;42945;51.718;5.324;2023-09-07T15:07:37;5.45;;;3.22;;
57055;SDS011;42945;51.718;5.324;2023-09-07T15:13:25;6.68;;;3.58;;
57055;SDS011;42945;51.718;5.324;2023-09-07T15:25:01;8.43;;;3.40;;
57055;SDS011;42945;51.718;5.324;2023-09-07T15:30:48;4.55;;;3.53;;
57055;SDS011;42945;51.718;5.324;2023-09-07T15:40:30;6.88;;;3.35;;
57055;SDS011;42945;51.718;5.324;2023-09-07T15:46:18;6.85;;;3.15;;
57055;SDS011;42945;51.718;5.324;2023-09-07T15:52:07;7.68;;;3.50;;
57055;SDS011;42945;51.718;5.324;2023-09-07T15:57:55;5.85;;;3.63;;
57055;SDS011;42945;51.718;5.324;2023-09-07T16:03:44;5.70;;;3.13;;
57055;SDS011;42945;51.718;5.324;2023-09-07T16:09:33;8.00;;;3.15;;
57055;SDS011;42945;51.718;5.324;2023-09-07T16:15:21;6.43;;;3.45;;
57055;SDS011;42945;51.718;5.324;2023-09-07T16:21:08;6.38;;;3.40;;
57055;SDS011;42945;51.718;5.324;2023-09-07T16:27:01;7.22;;;3.45;;
57055;SDS011;42945;51.718;5.324;2023-09-07T16:32:49;12.13;;;3.75;;
57055;SDS011;42945;51.718;5.324;2023-09-07T16:42:31;8.38;;;3.60;;
57055;SDS011;42945;51.718;5.324;2023-09-07T16:48:19;5.28;;;3.50;;
57055;SDS011;42945;51.718;5.324;2023-09-07T16:54:08;5.38;;;3.55;;
57055;SDS011;42945;51.718;5.324;2023-09-07T16:59:55;5.18;;;3.67;;
57055;SDS011;42945;51.718;5.324;2023-09-07T17:05:44;6.20;;;3.67;;
57055;SDS011;42945;51.718;5.324;2023-09-07T17:11:39;6.65;;;3.53;;
57055;SDS011;42945;51.718;5.324;2023-09-07T17:17:28;12.60;;;7.18;;
57055;SDS011;42945;51.718;5.324;2023-09-07T17:23:16;8.05;;;3.95;;
57055;SDS011;42945;51.718;5.324;2023-09-07T17:29:04;6.95;;;4.13;;
57055;SDS011;42945;51.718;5.324;2023-09-07T17:34:52;7.10;;;4.35;;
57055;SDS011;42945;51.718;5.324;2023-09-07T17:44:34;8.20;;;4.50;;
57055;SDS011;42945;51.718;5.324;2023-09-07T17:50:22;7.30;;;4.40;;
57055;SDS011;42945;51.718;5.324;2023-09-07T17:56:11;9.73;;;4.55;;
57055;SDS011;42945;51.718;5.324;2023-09-07T18:02:04;10.88;;;4.82;;
57055;SDS011;42945;51.718;5.324;2023-09-07T18:08:06;6.72;;;5.22;;
57055;SDS011;42945;51.718;5.324;2023-09-07T18:13:59;11.23;;;5.38;;
57055;SDS011;42945;51.718;5.324;2023-09-07T18:19:48;9.48;;;5.68;;
57055;SDS011;42945;51.718;5.324;2023-09-07T18:25:37;8.52;;;5.55;;
57055;SDS011;42945;51.718;5.324;2023-09-07T18:31:27;9.38;;;5.05;;
57055;SDS011;42945;51.718;5.324;2023-09-07T18:37:15;9.05;;;5.50;;
57055;SDS011;42945;51.718;5.324;2023-09-07T18:46:59;8.85;;;5.60;;
57055;SDS011;42945;51.718;5.324;2023-09-07T18:52:47;8.55;;;6.25;;
57055;SDS011;42945;51.718;5.324;2023-09-07T18:58:36;11.10;;;6.53;;
57055;SDS011;42945;51.718;5.324;2023-09-07T19:04:24;12.52;;;6.90;;
57055;SDS011;42945;51.718;5.324;2023-09-07T19:10:16;11.93;;;6.78;;
57055;SDS011;42945;51.718;5.324;2023-09-07T19:16:09;13.00;;;6.70;;
57055;SDS011;42945;51.718;5.324;2023-09-07T19:21:57;9.30;;;6.57;;
57055;SDS011;42945;51.718;5.324;2023-09-07T19:27:46;11.15;;;7.15;;
57055;SDS011;42945;51.718;5.324;2023-09-07T19:33:35;13.82;;;7.32;;
57055;SDS011;42945;51.718;5.324;2023-09-07T19:39:29;14.05;;;7.80;;
57055;SDS011;42945;51.718;5.324;2023-09-07T19:49:28;13.63;;;8.23;;
57055;SDS011;42945;51.718;5.324;2023-09-07T19:55:20;16.63;;;8.30;;
57055;SDS011;42945;51.718;5.324;2023-09-07T20:01:12;15.68;;;8.35;;
57055;SDS011;42945;51.718;5.324;2023-09-07T20:07:03;13.32;;;8.43;;
57055;SDS011;42945;51.718;5.324;2023-09-07T20:12:51;15.90;;;8.70;;
57055;SDS011;42945;51.718;5.324;2023-09-07T20:18:48;11.23;;;7.83;;
57055;SDS011;42945;51.718;5.324;2023-09-07T20:24:47;14.90;;;9.27;;
57055;SDS011;42945;51.718;5.324;2023-09-07T20:30:56;14.03;;;9.73;;
57055;SDS011;42945;51.718;5.324;2023-09-07T20:37:09;17.17;;;9.27;;
57055;SDS011;42945;51.718;5.324;2023-09-07T20:43:04;13.88;;;10.07;;
57055;SDS011;42945;51.718;5.324;2023-09-07T20:45:32;16.73;;;10.38;;
57055;SDS011;42945;51.718;5.324;2023-09-07T20:51:30;14.35;;;10.43;;
57055;SDS011;42945;51.718;5.324;2023-09-07T20:57:21;18.52;;;10.73;;
57055;SDS011;42945;51.718;5.324;2023-09-07T21:03:09;18.63;;;11.37;;
57055;SDS011;42945;51.718;5.324;2023-09-07T21:08:57;14.37;;;10.30;;
57055;SDS011;42945;51.718;5.324;2023-09-07T21:14:45;17.65;;;10.50;;
57055;SDS011;42945;51.718;5.324;2023-09-07T21:20:41;17.45;;;11.00;;
57055;SDS011;42945;51.718;5.324;2023-09-07T21:26:29;19.30;;;11.15;;
57055;SDS011;42945;51.718;5.324;2023-09-07T21:32:19;17.08;;;11.27;;
57055;SDS011;42945;51.718;5.324;2023-09-07T21:38:07;20.95;;;11.73;;
57055;SDS011;42945;51.718;5.324;2023-09-07T21:43:56;16.92;;;10.60;;
57055;SDS011;42945;51.718;5.324;2023-09-07T21:49:45;19.57;;;11.30;;
57055;SDS011;42945;51.718;5.324;2023-09-07T21:55:33;16.30;;;11.48;;
57055;SDS011;42945;51.718;5.324;2023-09-07T22:01:20;21.33;;;11.02;;
57055;SDS011;42945;51.718;5.324;2023-09-07T22:07:09;17.33;;;11.87;;
57055;SDS011;42945;51.718;5.324;2023-09-07T22:12:58;16.60;;;11.88;;
57055;SDS011;42945;51.718;5.324;2023-09-07T22:18:46;24.03;;;11.53;;
57055;SDS011;42945;51.718;5.324;2023-09-07T22:24:33;17.83;;;11.63;;
57055;SDS011;42945;51.718;5.324;2023-09-07T22:30:22;15.20;;;11.30;;
57055;SDS011;42945;51.718;5.324;2023-09-07T22:36:09;16.40;;;11.30;;
57055;SDS011;42945;51.718;5.324;2023-09-07T22:41:58;17.83;;;11.50;;
57055;SDS011;42945;51.718;5.324;2023-09-07T22:51:40;17.75;;;11.35;;
57055;SDS011;42945;51.718;5.324;2023-09-07T22:57:29;15.43;;;10.43;;
57055;SDS011;42945;51.718;5.324;2023-09-07T23:03:16;20.17;;;11.20;;
57055;SDS011;42945;51.718;5.324;2023-09-07T23:09:05;16.50;;;11.07;;
57055;SDS011;42945;51.718;5.324;2023-09-07T23:14:54;18.02;;;10.55;;
57055;SDS011;42945;51.718;5.324;2023-09-07T23:20:42;15.15;;;9.52;;
57055;SDS011;42945;51.718;5.324;2023-09-07T23:26:29;16.98;;;9.88;;
57055;SDS011;42945;51.718;5.324;2023-09-07T23:32:18;13.57;;;9.70;;
57055;SDS011;42945;51.718;5.324;2023-09-07T23:38:11;19.43;;;10.30;;
57055;SDS011;42945;51.718;5.324;2023-09-07T23:43:59;14.18;;;9.88;;
57055;SDS011;42945;51.718;5.324;2023-09-07T23:53:42;12.10;;;9.20;;
57055;SDS011;42945;51.718;5.324;2023-09-07T23:59:29;17.85;;;9.10;;
